Time;durP1;ratioP1;P1;durP2;ratioP2;P2;SDS_P1;SDS_P2;PMS_P1;PMS_P2;Temp;Humidity;BMP_temperature;BMP_pressure;BME280_temperature;BME280_humidity;BME280_pressure;Samples;Min_cycle;Max_cycle;Signal;HPM_P1;HPM_P2
2021/06/24 00:02:21;;;;;;;17.33;12.23;;;;;;;22.25;67.99;100444.72;4972709;28;20466;-90
2021/06/24 00:04:47;;;;;;;13.77;12.30;;;;;;;22.27;68.08;100441.63;4971732;28;20423;-90
2021/06/24 00:07:12;;;;;;;13.23;11.60;;;;;;;22.27;67.91;100438.88;4973567;28;20780;-90
2021/06/24 00:09:37;;;;;;;14.47;11.90;;;;;;;22.28;68.19;100435.78;4988529;28;20479;-90
2021/06/24 00:12:03;;;;;;;13.07;11.93;;;;;;;22.26;67.64;100435.31;4972499;28;20407;-90
2021/06/24 00:14:29;;;;;;;15.20;12.75;;;;;;;22.19;67.98;100427.50;4973393;28;20404;-89
2021/06/24 00:16:54;;;;;;;16.10;11.53;;;;;;;22.15;67.95;100432.03;4972974;28;20460;-90
2021/06/24 00:19:19;;;;;;;15.73;12.90;;;;;;;22.15;67.59;100429.28;4973179;28;20416;-89
2021/06/24 00:21:45;;;;;;;13.98;12.63;;;;;;;22.13;67.54;100431.53;4973595;28;20451;-90
2021/06/24 00:24:10;;;;;;;13.63;12.33;;;;;;;22.15;67.40;100442.28;4972302;28;20396;-90
2021/06/24 00:26:35;;;;;;;13.77;12.50;;;;;;;22.17;68.24;100440.81;4973057;28;20408;-90
2021/06/24 00:29:01;;;;;;;14.70;13.20;;;;;;;22.19;68.85;100440.50;4973271;28;20859;-90
2021/06/24 00:31:26;;;;;;;13.93;12.80;;;;;;;22.20;69.34;100433.81;4971146;28;20524;-90
2021/06/24 00:33:51;;;;;;;14.63;13.20;;;;;;;22.18;69.56;100442.44;4971806;28;20411;-90
2021/06/24 00:36:17;;;;;;;16.63;13.20;;;;;;;22.17;69.09;100446.31;4973241;28;20444;-90
2021/06/24 00:38:42;;;;;;;14.87;12.13;;;;;;;22.10;69.40;100448.75;4972174;28;20486;-89
2021/06/24 00:41:08;;;;;;;16.92;14.45;;;;;;;22.06;70.27;100450.50;4973322;28;20410;-89
2021/06/24 00:43:34;;;;;;;20.90;14.80;;;;;;;21.99;70.52;100449.38;4987151;28;20427;-88
2021/06/24 00:45:59;;;;;;;16.60;14.80;;;;;;;21.90;71.06;100445.78;4953752;28;20422;-89
2021/06/24 00:48:26;;;;;;;18.20;15.63;;;;;;;21.86;71.41;100439.25;4968678;28;20897;-89
2021/06/24 00:50:51;;;;;;;15.52;13.05;;;;;;;21.87;71.50;100451.88;4986232;28;20451;-88
2021/06/24 00:53:17;;;;;;;15.20;12.87;;;;;;;21.80;71.85;100460.63;4973029;28;20482;-89
2021/06/24 00:55:44;;;;;;;14.90;12.80;;;;;;;21.79;72.22;100461.78;4987918;28;20404;-88
2021/06/24 00:58:14;;;;;;;14.90;11.63;;;;;;;21.71;72.12;100459.78;4972601;28;20482;-89
2021/06/24 01:00:42;;;;;;;10.10;8.48;;;;;;;21.56;72.10;100458.28;4970878;28;20820;-88
2021/06/24 01:03:08;;;;;;;11.63;8.35;;;;;;;21.42;73.20;100451.22;4970746;28;20424;-89
2021/06/24 01:05:36;;;;;;;6.73;5.90;;;;;;;21.19;73.57;100445.78;4972208;28;20775;-89
2021/06/24 01:08:01;;;;;;;5.15;4.65;;;;;;;21.00;73.81;100441.56;4972292;28;20455;-88
2021/06/24 01:10:27;;;;;;;3.72;3.42;;;;;;;20.84;74.35;100437.56;4970228;28;20392;-89
2021/06/24 01:12:53;;;;;;;2.50;2.30;;;;;;;20.80;73.90;100447.59;4971803;28;20878;-88
2021/06/24 01:15:19;;;;;;;2.50;2.30;;;;;;;20.81;73.98;100463.00;4972192;28;20415;-90
2021/06/24 01:17:44;;;;;;;4.07;2.43;;;;;;;20.71;74.28;100466.81;4972743;28;20420;-90
2021/06/24 01:20:10;;;;;;;2.63;2.20;;;;;;;20.66;73.79;100475.16;4987410;28;20815;-90
2021/06/24 01:22:35;;;;;;;3.50;1.90;;;;;;;20.55;73.68;100471.00;4988110;28;20455;-90
2021/06/24 01:25:00;;;;;;;1.70;1.60;;;;;;;20.57;73.28;100455.00;4987878;28;20446;-90
2021/06/24 01:27:26;;;;;;;2.60;1.43;;;;;;;20.50;72.95;100460.94;4972610;28;20884;-90
2021/06/24 01:29:51;;;;;;;1.70;1.47;;;;;;;20.57;73.07;100457.78;4972380;28;20400;-89
2021/06/24 01:32:16;;;;;;;2.67;1.50;;;;;;;20.56;73.44;100445.13;4972801;28;20760;-91
2021/06/24 01:34:42;;;;;;;1.60;1.50;;;;;;;20.46;74.12;100440.66;4972051;28;20738;-90
2021/06/24 01:37:08;;;;;;;6.07;2.23;;;;;;;20.40;74.03;100441.09;4971763;28;20452;-91
2021/06/24 01:39:33;;;;;;;1.65;1.55;;;;;;;20.35;74.58;100439.25;4971657;28;20417;-90
2021/06/24 01:41:59;;;;;;;2.80;1.40;;;;;;;20.40;74.32;100441.91;4971620;28;20745;-90
2021/06/24 01:44:29;;;;;;;2.28;1.27;;;;;;;20.35;74.16;100457.75;4971570;28;20958;-90
2021/06/24 01:46:55;;;;;;;1.20;1.20;;;;;;;20.39;74.28;100467.81;4970900;28;20567;-91
2021/06/24 01:49:20;;;;;;;1.47;1.17;;;;;;;20.43;74.02;100470.75;4971086;28;20483;-90
2021/06/24 01:51:45;;;;;;;2.03;1.33;;;;;;;20.49;73.38;100478.59;4972518;28;20450;-90
2021/06/24 01:54:11;;;;;;;1.60;1.40;;;;;;;20.54;73.46;100489.50;4972148;28;20408;-89
2021/06/24 01:56:37;;;;;;;1.60;1.20;;;;;;;20.61;73.52;100483.56;4987137;28;21088;-89
2021/06/24 01:59:02;;;;;;;1.13;1.13;;;;;;;20.68;72.99;100482.00;4970802;28;20408;-89
2021/06/24 02:01:27;;;;;;;1.30;1.20;;;;;;;20.71;72.70;100486.09;4973491;28;20403;-89
2021/06/24 02:03:53;;;;;;;0.90;0.90;;;;;;;20.74;72.70;100479.13;4989865;28;20482;-89
2021/06/24 02:06:18;;;;;;;1.57;1.30;;;;;;;20.75;72.75;100483.53;4974129;28;20412;-89
2021/06/24 02:08:43;;;;;;;1.73;1.63;;;;;;;20.79;72.51;100476.25;4972422;28;20396;-89
2021/06/24 02:11:09;;;;;;;1.83;1.57;;;;;;;20.74;72.35;100488.22;4972504;28;20443;-90
2021/06/24 02:13:34;;;;;;;2.43;1.40;;;;;;;20.72;72.69;100487.69;4986240;28;20400;-89
2021/06/24 02:15:59;;;;;;;2.03;1.40;;;;;;;20.71;72.20;100475.06;4987289;28;20420;-89
2021/06/24 02:18:24;;;;;;;3.40;1.60;;;;;;;20.51;72.19;100484.63;4986739;28;20519;-90
2021/06/24 02:20:50;;;;;;;2.43;1.70;;;;;;;20.51;72.50;100483.78;4971809;28;20467;-89
2021/06/24 02:23:15;;;;;;;1.30;1.20;;;;;;;20.46;72.48;100470.13;4974811;28;20472;-89
2021/06/24 02:25:41;;;;;;;1.20;1.20;;;;;;;20.45;72.45;100469.31;4975980;28;20431;-89
2021/06/24 02:28:06;;;;;;;1.70;1.30;;;;;;;20.36;72.58;100468.44;4990828;28;20440;-89
2021/06/24 02:30:33;;;;;;;1.57;1.27;;;;;;;20.40;72.24;100466.69;4975820;28;20396;-90
2021/06/24 02:32:58;;;;;;;2.05;1.40;;;;;;;20.36;72.51;100459.34;4973539;28;20469;-90
2021/06/24 02:35:25;;;;;;;2.90;1.30;;;;;;;20.42;72.31;100449.84;4975748;28;20483;-89
2021/06/24 02:37:50;;;;;;;3.60;1.20;;;;;;;20.42;71.81;100447.91;4975776;28;20492;-90
2021/06/24 02:40:18;;;;;;;2.67;1.30;;;;;;;20.35;72.58;100443.97;4975988;28;20904;-90
2021/06/24 02:42:44;;;;;;;1.40;1.30;;;;;;;20.34;72.96;100447.84;4975566;28;20502;-90
2021/06/24 02:45:11;;;;;;;1.50;1.20;;;;;;;20.35;72.98;100443.97;4975803;28;20973;-89
2021/06/24 02:47:36;;;;;;;3.80;1.90;;;;;;;20.35;72.64;100436.50;4974739;28;20502;-89
2021/06/24 02:50:03;;;;;;;1.33;1.30;;;;;;;20.35;72.49;100438.47;4975608;28;20455;-90
2021/06/24 02:52:30;;;;;;;3.70;1.58;;;;;;;20.28;72.69;100438.06;4990381;28;20401;-89
2021/06/24 02:54:56;;;;;;;1.60;1.60;;;;;;;20.27;72.93;100431.75;4975617;28;20392;-89
2021/06/24 02:57:21;;;;;;;3.50;2.20;;;;;;;20.27;73.04;100429.00;4975322;28;20412;-90
2021/06/24 02:59:46;;;;;;;1.93;1.60;;;;;;;20.22;72.97;100433.78;4985028;28;20417;-89
2021/06/24 03:02:12;;;;;;;1.60;1.50;;;;;;;20.14;72.88;100438.06;4983471;28;20603;-89
2021/06/24 03:04:38;;;;;;;2.33;1.90;;;;;;;20.11;72.75;100447.75;4989855;28;20412;-89
2021/06/24 03:07:03;;;;;;;1.50;1.40;;;;;;;20.08;72.52;100447.56;4975229;28;20771;-90
2021/06/24 03:09:28;;;;;;;2.60;1.70;;;;;;;19.94;73.21;100455.84;4989117;28;20500;-89
2021/06/24 03:11:54;;;;;;;1.80;1.70;;;;;;;19.85;73.61;100456.84;4974776;28;20490;-89
2021/06/24 03:14:20;;;;;;;1.83;1.60;;;;;;;19.73;73.95;100471.09;4989887;28;20467;-89
2021/06/24 03:16:45;;;;;;;1.85;1.70;;;;;;;19.57;74.31;100459.59;4988287;28;20511;-89
2021/06/24 03:19:11;;;;;;;3.00;2.23;;;;;;;19.51;74.54;100452.56;4974439;28;20442;-89
2021/06/24 03:21:37;;;;;;;2.05;2.03;;;;;;;19.45;74.28;100455.72;4974188;28;20837;-89
2021/06/24 03:24:03;;;;;;;1.40;1.30;;;;;;;19.26;74.89;100453.03;4974491;28;20408;-89
2021/06/24 03:26:28;;;;;;;1.37;1.37;;;;;;;19.31;74.61;100458.41;4974719;28;20903;-89
2021/06/24 03:28:53;;;;;;;2.47;1.40;;;;;;;19.30;74.57;100451.28;4988999;28;20411;-90
2021/06/24 03:31:19;;;;;;;1.50;1.30;;;;;;;19.41;74.02;100451.94;4973995;28;20419;-90
2021/06/24 03:33:44;;;;;;;1.27;1.20;;;;;;;19.42;73.71;100448.09;4973355;28;20451;-89
2021/06/24 03:36:09;;;;;;;1.00;1.00;;;;;;;19.52;73.53;100429.47;4989293;28;20957;-88
2021/06/24 03:38:35;;;;;;;1.30;1.30;;;;;;;19.38;73.83;100427.78;4974105;28;20947;-89
2021/06/24 03:41:00;;;;;;;2.07;1.10;;;;;;;19.41;73.89;100425.28;4974276;28;20400;-89
2021/06/24 03:43:26;;;;;;;1.00;1.00;;;;;;;19.48;73.91;100430.38;4973122;28;20412;-90
2021/06/24 03:45:51;;;;;;;1.47;1.37;;;;;;;19.54;73.51;100435.47;4979375;28;20442;-89
2021/06/24 03:48:17;;;;;;;1.27;1.10;;;;;;;19.55;73.29;100426.09;4980913;28;20894;-89
2021/06/24 03:50:42;;;;;;;2.17;1.52;;;;;;;19.67;73.66;100439.34;4973866;28;20514;-89
2021/06/24 03:53:08;;;;;;;2.90;1.67;;;;;;;19.77;73.75;100436.38;4973838;28;20419;-89
2021/06/24 03:55:44;;;;;;;2.05;1.70;;;;;;;19.87;73.67;100443.59;4973739;28;20415;-89
2021/06/24 03:58:10;;;;;;;1.95;1.60;;;;;;;19.91;73.45;100445.44;4973842;28;20450;-89
2021/06/24 04:00:38;;;;;;;1.80;1.70;;;;;;;19.96;73.50;100439.00;4987897;28;20420;-89
2021/06/24 04:03:04;;;;;;;1.37;1.27;;;;;;;19.97;72.54;100451.66;4987986;28;20448;-90
2021/06/24 04:05:32;;;;;;;1.37;1.37;;;;;;;19.90;72.58;100452.06;4961232;28;20446;-90
2021/06/24 04:08:02;;;;;;;1.10;1.10;;;;;;;19.89;72.78;100450.41;4973829;28;20794;-90
2021/06/24 04:10:29;;;;;;;2.03;1.50;;;;;;;19.94;73.46;100458.56;4972973;28;20439;-88
2021/06/24 04:12:55;;;;;;;2.42;1.23;;;;;;;19.95;73.29;100460.22;4972916;28;20915;-89
2021/06/24 04:15:24;;;;;;;1.63;1.20;;;;;;;19.98;72.79;100456.03;4973648;28;20448;-89
2021/06/24 04:17:51;;;;;;;5.13;1.65;;;;;;;19.99;72.49;100444.72;4973604;28;20434;-89
2021/06/24 04:20:16;;;;;;;1.60;1.50;;;;;;;20.04;72.55;100441.88;4973275;28;20423;-89
2021/06/24 04:22:42;;;;;;;3.43;1.40;;;;;;;20.06;73.12;100438.78;4973559;28;20407;-91
2021/06/24 04:25:10;;;;;;;2.72;1.23;;;;;;;20.07;72.83;100437.69;4965732;28;20465;-89
2021/06/24 04:27:35;;;;;;;2.70;1.27;;;;;;;20.05;72.52;100413.25;4982682;28;20459;-90
2021/06/24 04:30:00;;;;;;;2.80;1.30;;;;;;;19.96;71.97;100401.31;4971257;28;20931;-90
2021/06/24 04:32:26;;;;;;;2.07;1.10;;;;;;;19.90;72.10;100407.22;4987907;28;20908;-90
2021/06/24 04:34:51;;;;;;;3.90;1.50;;;;;;;19.93;72.74;100412.13;4971576;28;20416;-90
2021/06/24 04:37:16;;;;;;;1.40;1.20;;;;;;;19.98;72.27;100409.28;4987830;28;20476;-89
2021/06/24 04:39:42;;;;;;;1.70;1.60;;;;;;;20.02;72.37;100413.81;4973128;28;20416;-91
2021/06/24 04:42:07;;;;;;;4.73;2.07;;;;;;;20.07;72.73;100413.72;4987269;28;20536;-90
2021/06/24 04:44:32;;;;;;;2.17;1.60;;;;;;;20.14;72.83;100414.13;4973172;28;20498;-90
2021/06/24 04:46:57;;;;;;;2.83;1.50;;;;;;;20.23;72.80;100407.88;4973400;28;20505;-90
2021/06/24 04:49:24;;;;;;;3.70;2.27;;;;;;;20.25;72.42;100419.41;4973196;28;20812;-89
2021/06/24 04:51:49;;;;;;;3.25;1.80;;;;;;;20.23;72.76;100419.69;4987705;28;20454;-90
2021/06/24 04:54:14;;;;;;;1.80;1.43;;;;;;;20.28;72.48;100419.63;4987482;28;20416;-90
2021/06/24 04:56:40;;;;;;;3.80;1.50;;;;;;;20.35;72.55;100424.72;4971166;28;20424;-91
2021/06/24 04:59:05;;;;;;;8.57;2.47;;;;;;;20.38;72.30;100418.59;4971715;28;20899;-89
2021/06/24 05:01:31;;;;;;;3.00;1.60;;;;;;;20.34;72.27;100412.88;4987537;28;20937;-91
2021/06/24 05:03:56;;;;;;;2.67;1.67;;;;;;;20.35;71.97;100410.94;4972748;28;20908;-90
2021/06/24 05:06:22;;;;;;;2.73;1.50;;;;;;;20.31;71.64;100404.44;4985540;28;20911;-92
2021/06/24 05:08:47;;;;;;;1.83;1.40;;;;;;;20.31;71.18;100410.75;4991783;28;20405;-91
2021/06/24 05:11:12;;;;;;;2.37;1.30;;;;;;;20.33;71.52;100410.44;4978789;28;20412;-91
2021/06/24 05:13:38;;;;;;;1.90;1.20;;;;;;;20.28;71.57;100407.81;4986304;28;20837;-91
2021/06/24 05:16:06;;;;;;;2.33;1.40;;;;;;;20.31;72.17;100402.50;4987119;28;20467;-90
2021/06/24 05:18:34;;;;;;;2.03;1.40;;;;;;;20.35;71.76;100397.19;4976455;28;20422;-91
2021/06/24 05:21:02;;;;;;;1.20;1.10;;;;;;;20.42;71.30;100397.53;4969172;28;20779;-91
2021/06/24 05:23:28;;;;;;;2.00;0.90;;;;;;;20.46;70.88;100404.06;4973683;28;20420;-89
2021/06/24 05:25:56;;;;;;;1.45;1.13;;;;;;;20.56;70.99;100401.88;4977179;28;20411;-90
2021/06/24 05:28:22;;;;;;;2.08;1.13;;;;;;;20.55;69.96;100400.25;4971753;28;20491;-87
2021/06/24 05:30:47;;;;;;;1.90;1.13;;;;;;;20.49;69.90;100393.25;4972537;28;20494;-88
2021/06/24 05:33:14;;;;;;;1.48;1.40;;;;;;;20.61;70.50;100404.50;4971168;28;20499;-91
2021/06/24 05:35:40;;;;;;;1.70;0.90;;;;;;;20.72;68.80;100413.34;4973597;28;20555;-88
2021/06/24 05:38:10;;;;;;;2.30;0.80;;;;;;;20.76;68.89;100403.31;4972695;28;20416;-93
2021/06/24 05:40:36;;;;;;;0.90;0.90;;;;;;;20.85;69.05;100409.69;4986348;28;20420;-90
2021/06/24 05:43:02;;;;;;;1.47;0.90;;;;;;;20.89;68.82;100409.88;4971282;28;20426;-92
2021/06/24 05:45:28;;;;;;;1.35;0.77;;;;;;;20.97;68.67;100409.13;4996949;28;20411;-92
2021/06/24 05:47:55;;;;;;;1.50;0.70;;;;;;;21.07;68.59;100412.44;4971309;28;20775;-88
2021/06/24 05:50:21;;;;;;;1.30;1.20;;;;;;;21.19;68.18;100406.38;4971773;28;20411;-89
2021/06/24 05:52:46;;;;;;;1.58;0.60;;;;;;;21.13;67.14;100402.13;4986934;28;20496;-90
2021/06/24 05:58:19;;;;;;;1.77;0.77;;;;;;;20.98;66.51;100406.06;4965582;28;20400;-89
2021/06/24 06:00:57;;;;;;;1.13;1.10;;;;;;;21.01;67.64;100410.16;4999849;28;21023;-89
2021/06/24 06:06:45;;;;;;;0.70;0.70;;;;;;;21.09;67.29;100421.22;4976363;28;20414;-89
2021/06/24 06:09:25;;;;;;;3.83;0.88;;;;;;;21.07;67.47;100425.41;4969747;28;20415;-89
2021/06/24 06:11:58;;;;;;;0.82;0.82;;;;;;;21.05;67.89;100435.91;4978043;28;20946;-89
2021/06/24 06:20:59;;;;;;;2.97;1.75;;;;;;;21.18;67.51;100440.56;4971790;28;20408;-90
2021/06/24 06:24:03;;;;;;;3.47;1.65;;;;;;;21.31;67.56;100433.31;4972776;28;20479;-90
2021/06/24 06:27:02;;;;;;;0.63;0.63;;;;;;;21.44;67.16;100433.25;4972970;28;20463;-89
2021/06/24 06:29:37;;;;;;;0.55;0.50;;;;;;;21.53;66.27;100425.84;4935025;28;20411;-89
2021/06/24 06:32:03;;;;;;;2.30;2.10;;;;;;;21.69;65.48;100429.78;4983243;28;20923;-89
2021/06/24 06:34:47;;;;;;;0.95;0.68;;;;;;;21.89;65.21;100422.91;4992604;28;20419;-90
2021/06/24 06:37:43;;;;;;;0.60;0.60;;;;;;;22.07;64.68;100429.25;4974818;28;20548;-90
2021/06/24 06:40:12;;;;;;;0.60;0.60;;;;;;;22.07;64.29;100421.78;4991851;28;20422;-91
2021/06/24 06:43:25;;;;;;;;;;;;;;;;;;;;;
2021/06/24 06:47:21;;;;;;;;;;;;;;;;;;;;;
2021/06/24 07:48:37;;;;;;;3.63;3.30;;;;;;;24.04;60.04;100436.41;5795492;24;20388;-89
2021/06/24 07:51:24;;;;;;;4.20;3.67;;;;;;;24.09;58.73;100437.00;4818454;29;20445;-90
2021/06/24 07:54:40;;;;;;;3.80;2.70;;;;;;;23.87;60.49;100437.31;4805661;29;20516;-91
2021/06/24 07:57:28;;;;;;;3.92;3.63;;;;;;;23.86;59.95;100435.69;4801675;29;20935;-90
2021/06/24 08:00:02;;;;;;;4.07;3.78;;;;;;;24.09;59.69;100444.50;4782746;29;20436;-92
2021/06/24 08:02:28;;;;;;;4.40;4.05;;;;;;;24.35;59.27;100439.63;4796577;29;20476;-87
2021/06/24 08:04:58;;;;;;;3.93;3.73;;;;;;;24.77;57.99;100444.00;4798397;29;20468;-90
2021/06/24 08:07:29;;;;;;;3.45;3.33;;;;;;;25.42;54.81;100447.13;4802203;29;20496;-90
2021/06/24 08:19:45;;;;;;;6.28;5.78;;;;;;;25.29;55.54;100454.63;4814385;29;20622;-89
2021/06/24 08:25:14;;;;;;;5.88;5.47;;;;;;;25.78;53.07;100455.53;4819439;29;20421;-91
2021/06/24 08:44:35;;;;;;;7.40;6.80;;;;;;;27.17;50.23;100453.81;4805180;29;20442;-90
2021/06/24 08:47:19;;;;;;;7.25;6.75;;;;;;;27.19;49.75;100450.69;4803381;29;20447;-90
2021/06/24 08:50:12;;;;;;;6.43;6.03;;;;;;;27.27;48.84;100444.94;4787801;29;20423;-92
2021/06/24 08:56:06;;;;;;;11.05;6.40;;;;;;;27.07;49.02;100439.66;4743259;30;20993;-90
2021/06/24 08:58:35;;;;;;;7.57;6.85;;;;;;;26.44;51.00;100441.34;4766357;30;21912;-91
2021/06/24 09:01:38;;;;;;;6.90;6.40;;;;;;;26.79;50.15;100440.44;4766933;30;20498;-91
2021/06/24 09:04:15;;;;;;;6.85;6.28;;;;;;;27.33;49.47;100446.31;4781349;30;20416;-91
2021/06/24 09:06:43;;;;;;;6.80;6.35;;;;;;;26.81;49.77;100443.69;4767351;30;20438;-90
2021/06/24 09:09:35;;;;;;;;;;;;;;;;;;;;;
2021/06/24 09:12:51;;;;;;;6.53;6.00;;;;;;;31.54;40.01;100448.50;4755808;30;20438;-91
2021/06/24 09:21:56;;;;;;;6.05;5.47;;;;;;;28.11;45.91;100462.25;4865424;24;20531;-91
2021/06/24 09:24:34;;;;;;;6.05;5.65;;;;;;;26.35;49.38;100449.00;4801833;29;20439;-90
2021/06/24 09:27:18;;;;;;;6.10;5.70;;;;;;;25.58;52.90;100462.78;4800522;29;20491;-89
2021/06/24 09:30:29;;;;;;;5.77;5.33;;;;;;;25.24;53.60;100449.28;4788156;29;20514;-91
2021/06/24 09:37:04;;;;;;;6.05;5.70;;;;;;;25.58;52.05;100448.91;4799464;29;20797;-90
2021/06/24 09:39:45;;;;;;;6.38;5.97;;;;;;;25.53;52.76;100443.56;4784984;29;20439;-90
2021/06/24 09:42:35;;;;;;;6.25;5.85;;;;;;;25.57;51.99;100449.25;4799315;29;20427;-90
2021/06/24 09:45:22;;;;;;;6.80;6.20;;;;;;;26.58;50.17;100438.97;4803608;29;20474;-91
2021/06/24 09:48:08;;;;;;;5.82;5.53;;;;;;;29.09;46.65;100440.47;4797978;29;20435;-85
2021/06/24 09:50:44;;;;;;;4.93;4.72;;;;;;;32.51;37.75;100437.56;4801716;29;20536;-85
2021/06/24 09:53:18;;;;;;;5.40;5.10;;;;;;;33.30;36.39;100445.13;4797892;29;20435;-90
2021/06/24 09:55:50;;;;;;;5.13;4.72;;;;;;;35.29;31.92;100452.00;4802636;29;20442;-91
2021/06/24 10:02:50;;;;;;;4.77;4.47;;;;;;;33.49;33.97;100450.38;4792828;29;20430;-90
2021/06/24 10:05:53;;;;;;;4.15;3.95;;;;;;;35.71;31.25;100446.06;4759877;29;20434;-90
2021/06/24 10:08:40;;;;;;;4.40;4.20;;;;;;;34.36;31.89;100450.75;4795464;29;20431;-92
2021/06/24 10:11:05;;;;;;;4.72;4.43;;;;;;;35.31;32.79;100449.56;4784827;29;20441;-91
2021/06/24 10:13:42;;;;;;;4.60;4.30;;;;;;;35.26;31.11;100450.81;4772349;29;20425;-90
2021/06/24 10:16:15;;;;;;;6.80;4.60;;;;;;;34.63;30.66;100454.72;4793311;29;20469;-90
2021/06/24 10:19:00;;;;;;;4.90;4.57;;;;;;;33.02;35.00;100442.22;4800366;29;20434;-90
2021/06/24 10:21:43;;;;;;;4.80;4.50;;;;;;;33.74;33.28;100441.97;4784211;29;20465;-92
2021/06/24 10:24:14;;;;;;;5.00;4.70;;;;;;;33.81;34.09;100436.34;4802474;29;20443;-91
2021/06/24 10:26:44;;;;;;;5.30;4.90;;;;;;;32.61;35.86;100425.63;4799661;29;20461;-89
2021/06/24 10:30:05;;;;;;;5.80;5.30;;;;;;;32.93;35.09;100430.56;4803732;29;20416;-90
2021/06/24 10:33:21;;;;;;;4.90;4.50;;;;;;;32.81;34.05;100424.13;4804681;29;20784;-91
2021/06/24 10:35:58;;;;;;;4.60;4.28;;;;;;;32.55;34.95;100421.56;4796600;29;20450;-90
2021/06/24 10:38:43;;;;;;;5.55;5.25;;;;;;;31.26;37.87;100414.56;4795635;29;20534;-88
2021/06/24 10:41:09;;;;;;;4.70;4.50;;;;;;;32.44;37.11;100417.91;4798518;29;20441;-88
2021/06/24 10:43:48;;;;;;;4.90;4.60;;;;;;;32.64;35.89;100418.41;4791394;29;20426;-88
2021/06/24 10:46:24;;;;;;;5.40;4.90;;;;;;;34.13;33.49;100419.47;4785309;29;20442;-89
2021/06/24 10:48:50;;;;;;;5.18;4.88;;;;;;;34.80;32.15;100413.63;4802986;29;20514;-90
2021/06/24 10:51:16;;;;;;;5.50;5.10;;;;;;;33.72;34.28;100417.06;4787966;29;20526;-90
2021/06/24 10:53:49;;;;;;;4.30;4.10;;;;;;;35.17;31.38;100419.47;4778651;29;20431;-91
2021/06/24 10:59:48;;;;;;;4.28;4.05;;;;;;;37.95;26.83;100429.94;4793453;29;20426;-90
2021/06/24 11:02:14;;;;;;;4.32;4.03;;;;;;;37.33;29.90;100426.47;4804830;29;20462;-90
2021/06/24 11:04:43;;;;;;;3.92;3.72;;;;;;;40.47;24.62;100429.41;4797894;29;20463;-89
2021/06/24 11:07:19;;;;;;;3.13;2.92;;;;;;;42.78;21.92;100429.84;4783491;29;20918;-90
2021/06/24 11:10:16;;;;;;;3.08;2.97;;;;;;;43.99;19.07;100431.44;4803698;29;20531;-89
2021/06/24 11:12:52;;;;;;;3.50;3.40;;;;;;;40.59;23.04;100425.03;4805048;29;20436;-87
2021/06/24 11:15:44;;;;;;;3.40;3.30;;;;;;;37.66;26.48;100421.13;4797307;29;20425;-87
2021/06/24 11:18:09;;;;;;;3.38;3.15;;;;;;;36.77;28.79;100411.13;4802363;29;20439;-86
2021/06/24 11:20:44;;;;;;;3.70;3.50;;;;;;;39.34;26.30;100423.84;4801926;29;20443;-88
2021/06/24 11:23:55;;;;;;;3.30;3.22;;;;;;;41.64;21.76;100420.09;4789019;29;20451;-90
2021/06/24 11:26:46;;;;;;;2.40;2.40;;;;;;;42.58;20.55;100417.19;4761257;30;20436;-90
2021/06/24 11:32:31;;;;;;;2.22;2.03;;;;;;;43.52;19.67;100422.44;4851676;24;20455;-87
2021/06/24 11:38:07;;;;;;;2.00;2.00;;;;;;;39.76;21.43;100413.47;4779413;30;20433;-87
2021/06/24 11:40:33;;;;;;;2.00;2.00;;;;;;;37.99;24.93;100403.19;4777994;30;20431;-86
2021/06/24 11:43:07;;;;;;;2.80;2.70;;;;;;;35.50;28.73;100403.94;4786661;30;20433;-85
2021/06/24 11:45:32;;;;;;;2.30;2.10;;;;;;;33.26;32.40;100407.81;4787196;29;20906;-86
2021/06/24 11:48:02;;;;;;;2.27;2.17;;;;;;;31.61;35.92;100398.16;4782070;29;20421;-86
2021/06/24 12:04:16;;;;;;;13.80;4.78;;;;;;;26.03;63.72;100421.03;4786824;29;20489;-91
2021/06/24 12:06:47;;;;;;;7.85;2.80;;;;;;;25.48;63.49;100446.56;4775288;29;20436;-90
2021/06/24 12:09:13;;;;;;;2.17;1.35;;;;;;;25.24;64.74;100452.03;4787865;29;20438;-91
2021/06/24 12:11:40;;;;;;;0.90;0.90;;;;;;;25.20;64.35;100467.75;4784968;30;20440;-92
2021/06/24 12:14:24;;;;;;;1.92;1.00;;;;;;;25.19;60.05;100443.97;4785930;30;20920;-91
2021/06/24 12:17:07;;;;;;;0.90;0.90;;;;;;;25.27;57.79;100432.75;4772191;30;20618;-89
2021/06/24 12:20:05;;;;;;;0.80;0.77;;;;;;;25.29;58.70;100441.53;4781963;29;20451;-89
2021/06/24 12:22:39;;;;;;;0.90;0.80;;;;;;;25.42;57.69;100430.47;4781599;29;20437;-91
2021/06/24 12:25:12;;;;;;;0.75;0.73;;;;;;;25.54;57.04;100423.00;4779877;29;20425;-90
2021/06/24 12:27:45;;;;;;;1.23;1.05;;;;;;;25.85;57.17;100403.00;4769468;30;21002;-91
2021/06/24 12:30:32;;;;;;;1.90;0.90;;;;;;;26.24;56.44;100396.72;4781115;29;20497;-91
2021/06/24 12:33:00;;;;;;;1.40;1.30;;;;;;;26.85;53.55;100379.00;4784809;29;20519;-90
2021/06/24 12:35:37;;;;;;;3.47;1.25;;;;;;;27.38;51.90;100378.44;4778931;29;20459;-89
2021/06/24 12:38:07;;;;;;;1.30;1.00;;;;;;;27.74;51.68;100388.50;4783978;29;20449;-89
2021/06/24 12:41:01;;;;;;;1.70;0.75;;;;;;;27.75;51.73;100395.69;4787008;29;20437;-89
2021/06/24 12:43:29;;;;;;;0.85;0.82;;;;;;;27.17;52.68;100394.59;4786371;29;20437;-90
2021/06/24 12:45:57;;;;;;;0.90;0.90;;;;;;;26.51;52.99;100388.78;4793185;29;20523;-90
2021/06/24 12:48:34;;;;;;;1.45;1.08;;;;;;;25.78;55.69;100394.44;4784315;29;20436;-91
2021/06/24 12:51:05;;;;;;;2.60;1.10;;;;;;;25.36;57.16;100401.34;4780951;29;20517;-91
2021/06/24 12:53:40;;;;;;;4.25;1.63;;;;;;;25.15;58.37;100390.31;4786337;29;20428;-92
2021/06/24 12:56:21;;;;;;;1.95;1.13;;;;;;;25.09;56.92;100381.41;4787070;29;20478;-93
2021/06/24 12:58:46;;;;;;;1.00;0.98;;;;;;;25.17;56.90;100383.28;4786746;29;20924;-95
2021/06/24 13:01:17;;;;;;;1.20;1.20;;;;;;;25.23;58.53;100392.16;4784894;29;20445;-92
2021/06/24 13:03:58;;;;;;;1.63;1.13;;;;;;;25.26;59.21;100397.84;4775213;29;20429;-93
2021/06/24 13:06:23;;;;;;;1.33;1.23;;;;;;;24.99;60.14;100395.72;4780346;29;20427;-92
2021/06/24 13:09:01;;;;;;;1.60;1.50;;;;;;;24.89;60.70;100395.34;4797568;29;20429;-91
2021/06/24 13:11:29;;;;;;;1.50;1.35;;;;;;;24.97;60.01;100397.19;4779867;29;20947;-91
2021/06/24 13:14:21;;;;;;;0.98;0.98;;;;;;;25.17;58.45;100379.69;4792223;29;20438;-92
2021/06/24 13:16:47;;;;;;;1.20;1.20;;;;;;;25.57;58.12;100371.53;4786148;29;20437;-90
2021/06/24 13:19:33;;;;;;;2.60;1.30;;;;;;;25.94;57.30;100387.03;4791717;29;20423;-90
2021/06/24 13:22:26;;;;;;;1.65;1.60;;;;;;;26.16;53.95;100394.03;4794582;29;20923;-90
2021/06/24 13:24:56;;;;;;;1.83;1.73;;;;;;;26.11;55.54;100395.09;4780132;29;20792;-91
2021/06/24 13:27:27;;;;;;;2.17;1.85;;;;;;;25.80;57.34;100401.25;4773804;29;20435;-93
2021/06/24 13:30:13;;;;;;;2.25;2.15;;;;;;;25.28;58.58;100411.38;4785465;29;20478;-91
2021/06/24 13:32:40;;;;;;;2.40;2.40;;;;;;;25.06;59.54;100406.25;4797145;29;20439;-91
2021/06/24 13:35:26;;;;;;;2.83;2.03;;;;;;;25.10;60.40;100418.25;4803145;29;20467;-92
2021/06/24 13:38:13;;;;;;;2.30;2.20;;;;;;;25.18;60.53;100414.59;4803108;29;20439;-91
2021/06/24 13:40:44;;;;;;;2.10;2.00;;;;;;;25.30;60.64;100425.69;4806350;29;20453;-92
2021/06/24 13:43:12;;;;;;;3.00;1.80;;;;;;;25.36;60.17;100416.00;4803184;29;20560;-89
2021/06/24 13:45:38;;;;;;;2.35;1.88;;;;;;;25.59;59.43;100422.75;4810192;29;20501;-85
2021/06/24 13:48:05;;;;;;;2.10;1.90;;;;;;;27.03;57.33;100420.06;4806197;29;20455;-85
2021/06/24 13:50:30;;;;;;;2.40;2.30;;;;;;;28.34;54.08;100428.94;4801620;29;20530;-89
2021/06/24 13:52:56;;;;;;;2.30;2.10;;;;;;;31.36;46.27;100433.47;4792723;29;20800;-90
2021/06/24 13:55:21;;;;;;;2.77;2.50;;;;;;;33.54;40.17;100440.72;4800865;29;20500;-88
2021/06/24 13:57:46;;;;;;;3.37;3.00;;;;;;;35.37;37.43;100445.88;4802513;29;20463;-89
2021/06/24 14:00:12;;;;;;;2.27;2.17;;;;;;;36.25;36.01;100449.22;4804607;29;20471;-87
2021/06/24 14:02:37;;;;;;;2.60;2.45;;;;;;;37.53;33.31;100443.56;4795243;29;20430;-86
2021/06/24 14:05:07;;;;;;;2.77;2.30;;;;;;;36.00;33.45;100443.78;4801881;29;20488;-88
2021/06/24 14:07:32;;;;;;;2.90;2.70;;;;;;;33.39;38.00;100445.56;4793022;29;20487;-86
2021/06/24 14:09:58;;;;;;;2.30;2.20;;;;;;;31.32;41.50;100447.44;4802207;29;20443;-88
2021/06/24 14:12:23;;;;;;;2.43;2.33;;;;;;;30.09;45.72;100445.84;4802112;29;20794;-88